sensor_id;sensor_type;location;lat;lon;timestamp;pressure;altitude;pressure_sealevel;temperature;humidity
51081;BME280;37130;55.670;37.596;2023-02-16T00:00:26;100404.81;;;-3.90;78.90
51081;BME280;37130;55.670;37.596;2023-02-16T00:02:54;100398.06;;;-3.83;78.64
51081;BME280;37130;55.670;37.596;2023-02-16T00:05:29;100404.91;;;-3.87;78.28
51081;BME280;37130;55.670;37.596;2023-02-16T00:07:57;100401.22;;;-3.97;78.03
51081;BME280;37130;55.670;37.596;2023-02-16T00:10:30;100401.94;;;-4.02;78.15
51081;BME280;37130;55.670;37.596;2023-02-16T00:12:58;100402.00;;;-3.99;78.37
51081;BME280;37130;55.670;37.596;2023-02-16T00:15:44;100401.19;;;-3.98;78.53
51081;BME280;37130;55.670;37.596;2023-02-16T00:18:19;100403.84;;;-3.95;77.92
51081;BME280;37130;55.670;37.596;2023-02-16T00:20:47;100408.03;;;-4.00;77.94
51081;BME280;37130;55.670;37.596;2023-02-16T00:23:15;100392.28;;;-4.09;78.27
51081;BME280;37130;55.670;37.596;2023-02-16T00:25:43;100387.81;;;-4.16;78.15
51081;BME280;37130;55.670;37.596;2023-02-16T00:28:15;100395.72;;;-4.09;78.20
51081;BME280;37130;55.670;37.596;2023-02-16T00:30:45;100397.50;;;-4.08;77.69
51081;BME280;37130;55.670;37.596;2023-02-16T00:33:18;100397.19;;;-4.20;77.32
51081;BME280;37130;55.670;37.596;2023-02-16T00:35:46;100268.66;;;-4.95;77.03
51081;BME280;37130;55.670;37.596;2023-02-16T00:38:15;100324.53;;;-4.66;76.85
51081;BME280;37130;55.670;37.596;2023-02-16T00:40:43;100394.66;;;-4.17;76.47
51081;BME280;37130;55.670;37.596;2023-02-16T00:43:23;100390.34;;;-4.18;75.97
51081;BME280;37130;55.670;37.596;2023-02-16T00:45:51;100392.19;;;-4.12;76.44
51081;BME280;37130;55.670;37.596;2023-02-16T00:48:19;100385.38;;;-4.10;76.60
51081;BME280;37130;55.670;37.596;2023-02-16T00:50:47;100362.75;;;-4.19;76.35
51081;BME280;37130;55.670;37.596;2023-02-16T00:53:16;100390.53;;;-4.10;75.94
51081;BME280;37130;55.670;37.596;2023-02-16T00:55:44;100382.72;;;-4.13;76.32
51081;BME280;37130;55.670;37.596;2023-02-16T00:58:19;100393.94;;;-4.11;76.63
51081;BME280;37130;55.670;37.596;2023-02-16T01:00:52;100383.53;;;-4.14;76.36
51081;BME280;37130;55.670;37.596;2023-02-16T01:03:24;100383.44;;;-4.19;77.09
51081;BME280;37130;55.670;37.596;2023-02-16T01:05:52;100378.25;;;-4.19;76.90
51081;BME280;37130;55.670;37.596;2023-02-16T01:08:40;100373.09;;;-4.18;77.12
51081;BME280;37130;55.670;37.596;2023-02-16T01:11:27;100381.56;;;-4.25;76.84
51081;BME280;37130;55.670;37.596;2023-02-16T01:13:55;100386.81;;;-4.22;77.01
51081;BME280;37130;55.670;37.596;2023-02-16T01:16:34;100386.91;;;-4.17;77.08
51081;BME280;37130;55.670;37.596;2023-02-16T01:19:03;100385.22;;;-4.16;77.09
51081;BME280;37130;55.670;37.596;2023-02-16T01:21:30;100400.81;;;-4.13;77.20
51081;BME280;37130;55.670;37.596;2023-02-16T01:24:01;100291.31;;;-4.85;76.86
51081;BME280;37130;55.670;37.596;2023-02-16T01:26:28;100393.78;;;-4.19;77.25
51081;BME280;37130;55.670;37.596;2023-02-16T01:29:00;100272.28;;;-4.89;77.40
51081;BME280;37130;55.670;37.596;2023-02-16T01:31:27;100393.88;;;-4.14;77.31
51081;BME280;37130;55.670;37.596;2023-02-16T01:33:55;100373.78;;;-4.25;77.56
51081;BME280;37130;55.670;37.596;2023-02-16T01:36:27;100396.47;;;-4.14;77.25
51081;BME280;37130;55.670;37.596;2023-02-16T01:38:57;100389.69;;;-4.09;77.23
51081;BME280;37130;55.670;37.596;2023-02-16T01:44:19;100393.06;;;-4.13;77.38
51081;BME280;37130;55.670;37.596;2023-02-16T01:47:24;100391.34;;;-4.11;77.23
51081;BME280;37130;55.670;37.596;2023-02-16T01:49:55;100283.81;;;-4.76;76.97
51081;BME280;37130;55.670;37.596;2023-02-16T01:52:43;100391.28;;;-4.14;77.15
51081;BME280;37130;55.670;37.596;2023-02-16T01:57:48;100399.84;;;-4.17;77.05
51081;BME280;37130;55.670;37.596;2023-02-16T02:06:08;100399.66;;;-4.25;77.76
51081;BME280;37130;55.670;37.596;2023-02-16T02:08:42;100408.41;;;-4.20;77.82
51081;BME280;37130;55.670;37.596;2023-02-16T02:11:23;100401.50;;;-4.21;77.56
51081;BME280;37130;55.670;37.596;2023-02-16T02:14:02;100404.94;;;-4.22;77.59
51081;BME280;37130;55.670;37.596;2023-02-16T02:16:33;100408.22;;;-4.27;77.81
51081;BME280;37130;55.670;37.596;2023-02-16T02:19:02;100402.97;;;-4.30;77.89
51081;BME280;37130;55.670;37.596;2023-02-16T02:28:05;100411.22;;;-4.45;77.54
51081;BME280;37130;55.670;37.596;2023-02-16T02:30:53;100397.53;;;-4.41;77.75
51081;BME280;37130;55.670;37.596;2023-02-16T02:39:17;100401.19;;;-4.33;77.47
51081;BME280;37130;55.670;37.596;2023-02-16T02:42:13;100406.25;;;-4.37;77.82
51081;BME280;37130;55.670;37.596;2023-02-16T02:44:53;100402.88;;;-4.33;78.30
51081;BME280;37130;55.670;37.596;2023-02-16T02:47:21;100404.75;;;-4.28;78.09
51081;BME280;37130;55.670;37.596;2023-02-16T02:49:50;100407.41;;;-4.25;78.67
51081;BME280;37130;55.670;37.596;2023-02-16T02:52:18;100407.50;;;-4.22;78.65
51081;BME280;37130;55.670;37.596;2023-02-16T02:54:47;100407.41;;;-4.25;78.42
51081;BME280;37130;55.670;37.596;2023-02-16T03:00:40;100351.50;;;-4.88;78.66
51081;BME280;37130;55.670;37.596;2023-02-16T03:08:26;100410.16;;;-4.52;80.20
51081;BME280;37130;55.670;37.596;2023-02-16T03:11:16;100380.72;;;-4.58;80.25
51081;BME280;37130;55.670;37.596;2023-02-16T03:14:09;100409.59;;;-4.42;80.81
51081;BME280;37130;55.670;37.596;2023-02-16T03:16:44;100358.75;;;-4.74;80.64
51081;BME280;37130;55.670;37.596;2023-02-16T03:19:14;100399.97;;;-4.46;80.37
51081;BME280;37130;55.670;37.596;2023-02-16T03:22:02;100278.41;;;-5.18;80.75
51081;BME280;37130;55.670;37.596;2023-02-16T03:24:49;100394.88;;;-4.44;80.42
51081;BME280;37130;55.670;37.596;2023-02-16T03:27:38;100394.66;;;-4.52;80.23
51081;BME280;37130;55.670;37.596;2023-02-16T03:30:26;100366.81;;;-4.62;80.79
51081;BME280;37130;55.670;37.596;2023-02-16T03:32:55;100240.66;;;-5.46;80.50
51081;BME280;37130;55.670;37.596;2023-02-16T03:35:23;100374.03;;;-4.50;80.66
51081;BME280;37130;55.670;37.596;2023-02-16T03:37:51;100374.84;;;-4.51;80.40
51081;BME280;37130;55.670;37.596;2023-02-16T03:40:19;100376.69;;;-4.47;80.69
51081;BME280;37130;55.670;37.596;2023-02-16T03:42:59;100394.00;;;-4.43;80.27
51081;BME280;37130;55.670;37.596;2023-02-16T03:45:30;100389.75;;;-4.41;80.20
51081;BME280;37130;55.670;37.596;2023-02-16T03:47:59;100386.25;;;-4.43;80.08
51081;BME280;37130;55.670;37.596;2023-02-16T03:50:27;100390.81;;;-4.34;80.27
51081;BME280;37130;55.670;37.596;2023-02-16T03:52:55;100395.19;;;-4.30;79.78
51081;BME280;37130;55.670;37.596;2023-02-16T03:55:37;100380.50;;;-4.33;80.06
51081;BME280;37130;55.670;37.596;2023-02-16T03:58:07;100381.53;;;-4.26;79.99
51081;BME280;37130;55.670;37.596;2023-02-16T04:00:36;100380.56;;;-4.30;79.62
51081;BME280;37130;55.670;37.596;2023-02-16T04:03:04;100391.00;;;-4.27;79.21
51081;BME280;37130;55.670;37.596;2023-02-16T04:05:32;100376.19;;;-4.32;79.40
51081;BME280;37130;55.670;37.596;2023-02-16T04:08:00;100274.66;;;-4.96;78.79
51081;BME280;37130;55.670;37.596;2023-02-16T04:10:28;100380.56;;;-4.30;79.05
51081;BME280;37130;55.670;37.596;2023-02-16T04:12:56;100403.88;;;-4.28;79.13
51081;BME280;37130;55.670;37.596;2023-02-16T04:15:26;100388.50;;;-4.24;78.91
51081;BME280;37130;55.670;37.596;2023-02-16T04:17:54;100391.06;;;-4.24;78.48
51081;BME280;37130;55.670;37.596;2023-02-16T04:20:24;100391.91;;;-4.25;78.74
51081;BME280;37130;55.670;37.596;2023-02-16T04:22:52;100348.41;;;-4.41;78.65
51081;BME280;37130;55.670;37.596;2023-02-16T04:25:21;100280.16;;;-4.84;78.71
51081;BME280;37130;55.670;37.596;2023-02-16T04:27:49;100375.38;;;-4.30;78.38
51081;BME280;37130;55.670;37.596;2023-02-16T04:30:23;100379.75;;;-4.27;78.60
51081;BME280;37130;55.670;37.596;2023-02-16T04:32:52;100377.84;;;-4.36;78.75
51081;BME280;37130;55.670;37.596;2023-02-16T04:35:20;100381.47;;;-4.29;78.57
51081;BME280;37130;55.670;37.596;2023-02-16T04:37:47;100376.28;;;-4.29;79.19
51081;BME280;37130;55.670;37.596;2023-02-16T04:40:16;100375.22;;;-4.37;78.86
51081;BME280;37130;55.670;37.596;2023-02-16T04:42:44;100376.13;;;-4.35;78.80
51081;BME280;37130;55.670;37.596;2023-02-16T04:45:12;100261.63;;;-5.01;78.46
51081;BME280;37130;55.670;37.596;2023-02-16T04:47:40;100372.66;;;-4.36;78.62
51081;BME280;37130;55.670;37.596;2023-02-16T04:50:08;100272.88;;;-4.99;78.99
51081;BME280;37130;55.670;37.596;2023-02-16T04:52:36;100369.13;;;-4.39;78.93
51081;BME280;37130;55.670;37.596;2023-02-16T04:55:04;100370.69;;;-4.46;78.65
51081;BME280;37130;55.670;37.596;2023-02-16T04:57:33;100376.72;;;-4.46;78.46
51081;BME280;37130;55.670;37.596;2023-02-16T05:00:01;100374.94;;;-4.48;78.34
51081;BME280;37130;55.670;37.596;2023-02-16T05:02:31;100368.75;;;-4.55;78.35
51081;BME280;37130;55.670;37.596;2023-02-16T05:04:59;100203.56;;;-5.50;78.23
51081;BME280;37130;55.670;37.596;2023-02-16T05:07:29;100263.72;;;-5.21;78.01
51081;BME280;37130;55.670;37.596;2023-02-16T05:09:56;100372.31;;;-4.50;78.18
51081;BME280;37130;55.670;37.596;2023-02-16T05:12:24;100274.25;;;-5.13;78.49
51081;BME280;37130;55.670;37.596;2023-02-16T05:15:10;100378.97;;;-4.59;78.23
51081;BME280;37130;55.670;37.596;2023-02-16T05:17:38;100386.78;;;-4.56;78.31
51081;BME280;37130;55.670;37.596;2023-02-16T05:20:07;100383.47;;;-4.51;78.28
51081;BME280;37130;55.670;37.596;2023-02-16T05:22:34;100380.88;;;-4.51;78.68
51081;BME280;37130;55.670;37.596;2023-02-16T05:25:05;100268.19;;;-5.14;78.42
51081;BME280;37130;55.670;37.596;2023-02-16T05:27:33;100371.13;;;-4.63;78.17
51081;BME280;37130;55.670;37.596;2023-02-16T05:30:02;100392.13;;;-4.50;78.59
51081;BME280;37130;55.670;37.596;2023-02-16T05:32:30;100384.25;;;-4.55;78.33
51081;BME280;37130;55.670;37.596;2023-02-16T05:34:58;100392.94;;;-4.53;78.28
51081;BME280;37130;55.670;37.596;2023-02-16T05:37:26;100388.22;;;-4.68;78.02
51081;BME280;37130;55.670;37.596;2023-02-16T05:39:54;100265.09;;;-5.34;78.27
51081;BME280;37130;55.670;37.596;2023-02-16T05:42:21;100394.44;;;-4.61;78.05
51081;BME280;37130;55.670;37.596;2023-02-16T05:44:49;100398.72;;;-4.62;78.32
51081;BME280;37130;55.670;37.596;2023-02-16T05:47:16;100384.97;;;-4.60;78.63
51081;BME280;37130;55.670;37.596;2023-02-16T05:49:44;100392.03;;;-4.53;78.27
51081;BME280;37130;55.670;37.596;2023-02-16T05:52:11;100392.75;;;-4.59;77.96
51081;BME280;37130;55.670;37.596;2023-02-16T05:54:39;100391.00;;;-4.60;78.46
51081;BME280;37130;55.670;37.596;2023-02-16T05:57:06;100384.09;;;-4.61;78.44
51081;BME280;37130;55.670;37.596;2023-02-16T05:59:35;100306.09;;;-5.13;78.56
51081;BME280;37130;55.670;37.596;2023-02-16T06:02:03;100397.97;;;-4.57;78.48
51081;BME280;37130;55.670;37.596;2023-02-16T06:04:30;100368.34;;;-4.70;78.81
51081;BME280;37130;55.670;37.596;2023-02-16T06:06:58;100393.16;;;-4.44;78.25
51081;BME280;37130;55.670;37.596;2023-02-16T06:09:27;100166.75;;;-5.76;78.06
51081;BME280;37130;55.670;37.596;2023-02-16T06:11:54;100403.34;;;-4.50;77.82
51081;BME280;37130;55.670;37.596;2023-02-16T06:14:22;100242.78;;;-5.30;78.57
51081;BME280;37130;55.670;37.596;2023-02-16T06:16:49;100375.13;;;-4.41;77.84
51081;BME280;37130;55.670;37.596;2023-02-16T06:19:20;100379.75;;;-4.27;78.49
51081;BME280;37130;55.670;37.596;2023-02-16T06:21:47;100380.72;;;-4.24;77.89
51081;BME280;37130;55.670;37.596;2023-02-16T06:24:15;100382.47;;;-4.23;78.10
51081;BME280;37130;55.670;37.596;2023-02-16T06:26:42;100370.38;;;-4.24;77.89
51081;BME280;37130;55.670;37.596;2023-02-16T06:29:10;100382.66;;;-4.15;77.88
51081;BME280;37130;55.670;37.596;2023-02-16T06:31:37;100376.75;;;-4.09;77.51
51081;BME280;37130;55.670;37.596;2023-02-16T06:34:05;100381.19;;;-4.04;77.22
51081;BME280;37130;55.670;37.596;2023-02-16T06:36:33;100258.94;;;-4.71;77.15
51081;BME280;37130;55.670;37.596;2023-02-16T06:39:01;100375.34;;;-3.97;77.56
51081;BME280;37130;55.670;37.596;2023-02-16T06:41:29;100379.72;;;-3.94;77.18
51081;BME280;37130;55.670;37.596;2023-02-16T06:44:10;100372.88;;;-3.90;77.56
51081;BME280;37130;55.670;37.596;2023-02-16T06:46:41;100259.31;;;-4.55;77.43
51081;BME280;37130;55.670;37.596;2023-02-16T06:49:19;100380.06;;;-3.79;77.15
51081;BME280;37130;55.670;37.596;2023-02-16T06:51:48;100376.81;;;-3.70;77.25
51081;BME280;37130;55.670;37.596;2023-02-16T06:54:16;100296.31;;;-4.22;76.60
51081;BME280;37130;55.670;37.596;2023-02-16T06:56:43;100383.00;;;-3.63;76.44
51081;BME280;37130;55.670;37.596;2023-02-16T06:59:11;100371.66;;;-3.68;76.33
51081;BME280;37130;55.670;37.596;2023-02-16T07:01:39;100381.41;;;-3.58;76.74
51081;BME280;37130;55.670;37.596;2023-02-16T07:04:09;100378.16;;;-3.48;76.06
51081;BME280;37130;55.670;37.596;2023-02-16T07:06:37;100374.59;;;-3.53;76.24
51081;BME280;37130;55.670;37.596;2023-02-16T07:09:05;100278.22;;;-4.20;76.19
51081;BME280;37130;55.670;37.596;2023-02-16T07:11:32;100372.88;;;-3.53;75.62
51081;BME280;37130;55.670;37.596;2023-02-16T07:14:01;100377.03;;;-3.61;75.59
51081;BME280;37130;55.670;37.596;2023-02-16T07:16:28;100376.91;;;-3.65;75.53
51081;BME280;37130;55.670;37.596;2023-02-16T07:18:56;100378.66;;;-3.64;75.82
51081;BME280;37130;55.670;37.596;2023-02-16T07:21:23;100366.69;;;-3.59;75.65
51081;BME280;37130;55.670;37.596;2023-02-16T07:23:51;100368.69;;;-3.47;75.62
51081;BME280;37130;55.670;37.596;2023-02-16T07:26:19;100369.00;;;-3.32;75.49
51081;BME280;37130;55.670;37.596;2023-02-16T07:28:46;100170.66;;;-4.53;75.42
51081;BME280;37130;55.670;37.596;2023-02-16T07:31:15;100355.63;;;-3.52;75.02
51081;BME280;37130;55.670;37.596;2023-02-16T07:33:43;100388.66;;;-3.42;75.33
51081;BME280;37130;55.670;37.596;2023-02-16T07:36:12;100387.91;;;-3.36;75.04
51081;BME280;37130;55.670;37.596;2023-02-16T07:38:39;100375.06;;;-3.32;74.80
51081;BME280;37130;55.670;37.596;2023-02-16T07:41:08;100243.22;;;-4.04;74.92
51081;BME280;37130;55.670;37.596;2023-02-16T07:43:37;100368.44;;;-3.17;74.75
51081;BME280;37130;55.670;37.596;2023-02-16T07:46:05;100371.13;;;-3.13;75.40
51081;BME280;37130;55.670;37.596;2023-02-16T07:48:32;100369.38;;;-3.14;74.70
51081;BME280;37130;55.670;37.596;2023-02-16T07:51:00;100377.97;;;-3.16;75.14
51081;BME280;37130;55.670;37.596;2023-02-16T07:53:29;100358.31;;;-3.06;75.01
51081;BME280;37130;55.670;37.596;2023-02-16T07:55:56;100354.97;;;-2.99;74.81
51081;BME280;37130;55.670;37.596;2023-02-16T07:58:24;100368.94;;;-2.93;73.91
51081;BME280;37130;55.670;37.596;2023-02-16T08:01:20;100367.91;;;-3.01;74.47
51081;BME280;37130;55.670;37.596;2023-02-16T08:03:49;100362.72;;;-3.01;75.02
51081;BME280;37130;55.670;37.596;2023-02-16T08:06:17;100357.53;;;-3.01;74.75
51081;BME280;37130;55.670;37.596;2023-02-16T08:08:45;100357.59;;;-2.98;74.16
51081;BME280;37130;55.670;37.596;2023-02-16T08:11:16;100279.72;;;-3.51;74.45
51081;BME280;37130;55.670;37.596;2023-02-16T08:13:44;100361.22;;;-2.90;73.87
51081;BME280;37130;55.670;37.596;2023-02-16T08:16:20;100363.13;;;-2.79;74.11
51081;BME280;37130;55.670;37.596;2023-02-16T08:18:49;100364.91;;;-2.75;74.61
51081;BME280;37130;55.670;37.596;2023-02-16T08:21:20;100359.97;;;-2.63;73.84
51081;BME280;37130;55.670;37.596;2023-02-16T08:24:02;100350.72;;;-2.47;73.90
51081;BME280;37130;55.670;37.596;2023-02-16T08:26:36;100323.56;;;-2.68;73.42
51081;BME280;37130;55.670;37.596;2023-02-16T08:29:06;100358.81;;;-2.30;73.82
51081;BME280;37130;55.670;37.596;2023-02-16T08:31:36;100270.47;;;-2.91;73.02
51081;BME280;37130;55.670;37.596;2023-02-16T08:34:29;100361.97;;;-2.47;73.42
51081;BME280;37130;55.670;37.596;2023-02-16T08:37:05;100357.56;;;-2.52;72.62
51081;BME280;37130;55.670;37.596;2023-02-16T08:39:33;100359.50;;;-2.40;73.63
51081;BME280;37130;55.670;37.596;2023-02-16T08:42:01;100352.78;;;-2.29;72.82
51081;BME280;37130;55.670;37.596;2023-02-16T08:44:30;100263.72;;;-2.81;72.71
51081;BME280;37130;55.670;37.596;2023-02-16T08:47:03;100350.91;;;-2.38;72.46
51081;BME280;37130;55.670;37.596;2023-02-16T08:49:31;100339.59;;;-2.42;72.46
51081;BME280;37130;55.670;37.596;2023-02-16T08:51:59;100352.41;;;-2.49;73.01
51081;BME280;37130;55.670;37.596;2023-02-16T08:54:29;100331.44;;;-2.63;72.51
51081;BME280;37130;55.670;37.596;2023-02-16T08:56:57;100341.13;;;-2.53;72.81
51081;BME280;37130;55.670;37.596;2023-02-16T08:59:27;100348.88;;;-2.56;72.78
51081;BME280;37130;55.670;37.596;2023-02-16T09:01:56;100349.78;;;-2.54;73.17
51081;BME280;37130;55.670;37.596;2023-02-16T09:04:25;100341.19;;;-2.50;72.41
51081;BME280;37130;55.670;37.596;2023-02-16T09:06:57;100298.47;;;-2.70;72.88
51081;BME280;37130;55.670;37.596;2023-02-16T09:09:25;100249.94;;;-2.79;72.34
51081;BME280;37130;55.670;37.596;2023-02-16T09:11:53;100345.34;;;-2.06;72.70
51081;BME280;37130;55.670;37.596;2023-02-16T09:14:21;100339.63;;;-1.85;72.46
51081;BME280;37130;55.670;37.596;2023-02-16T09:16:49;100335.50;;;-1.69;71.83
51081;BME280;37130;55.670;37.596;2023-02-16T09:19:19;100337.34;;;-1.61;71.31
51081;BME280;37130;55.670;37.596;2023-02-16T09:21:47;100339.91;;;-1.64;72.23
51081;BME280;37130;55.670;37.596;2023-02-16T09:24:17;100344.16;;;-1.69;71.76
51081;BME280;37130;55.670;37.596;2023-02-16T09:26:45;100268.41;;;-2.04;71.81
51081;BME280;37130;55.670;37.596;2023-02-16T09:29:13;100335.78;;;-1.48;71.57
51081;BME280;37130;55.670;37.596;2023-02-16T09:31:41;100228.91;;;-1.79;70.34
51081;BME280;37130;55.670;37.596;2023-02-16T09:34:18;100342.22;;;-1.20;69.77
51081;BME280;37130;55.670;37.596;2023-02-16T09:36:47;100330.03;;;-1.24;69.95
51081;BME280;37130;55.670;37.596;2023-02-16T09:39:15;100324.78;;;-1.27;70.13
51081;BME280;37130;55.670;37.596;2023-02-16T09:47:08;100256.84;;;-1.61;69.51
51081;BME280;37130;55.670;37.596;2023-02-16T09:49:41;100217.44;;;-1.98;68.84
51081;BME280;37130;55.670;37.596;2023-02-16T09:54:51;100333.91;;;-1.58;69.36
51081;BME280;37130;55.670;37.596;2023-02-16T10:00:23;100328.19;;;-1.98;68.72
51081;BME280;37130;55.670;37.596;2023-02-16T10:08:15;100326.31;;;-2.07;69.24
51081;BME280;37130;55.670;37.596;2023-02-16T10:10:50;100302.66;;;-2.27;68.41
51081;BME280;37130;55.670;37.596;2023-02-16T10:16:00;100235.81;;;-2.45;68.07
51081;BME280;37130;55.670;37.596;2023-02-16T10:18:34;100248.94;;;-2.34;67.82
51081;BME280;37130;55.670;37.596;2023-02-16T10:21:12;100285.63;;;-2.08;67.28
51081;BME280;37130;55.670;37.596;2023-02-16T10:23:47;100254.16;;;-2.31;67.33
51081;BME280;37130;55.670;37.596;2023-02-16T10:29:16;100238.59;;;-2.87;67.70
51081;BME280;37130;55.670;37.596;2023-02-16T10:32:24;100317.13;;;-2.41;67.72
51081;BME280;37130;55.670;37.596;2023-02-16T10:35:17;100318.78;;;-2.45;68.08
51081;BME280;37130;55.670;37.596;2023-02-16T10:40:59;100314.47;;;-2.44;67.72
51081;BME280;37130;55.670;37.596;2023-02-16T10:43:41;100316.16;;;-2.48;67.71
51081;BME280;37130;55.670;37.596;2023-02-16T10:46:21;100305.53;;;-2.63;67.37
51081;BME280;37130;55.670;37.596;2023-02-16T10:48:54;100314.03;;;-2.72;67.31
51081;BME280;37130;55.670;37.596;2023-02-16T10:51:32;100315.72;;;-2.74;67.47
51081;BME280;37130;55.670;37.596;2023-02-16T10:54:06;100315.72;;;-2.74;67.44
51081;BME280;37130;55.670;37.596;2023-02-16T10:56:48;100322.53;;;-2.79;67.75
51081;BME280;37130;55.670;37.596;2023-02-16T10:59:30;100323.34;;;-2.81;67.82
51081;BME280;37130;55.670;37.596;2023-02-16T11:02:23;100239.53;;;-3.31;68.44
51081;BME280;37130;55.670;37.596;2023-02-16T11:08:49;100294.91;;;-2.77;68.61
51081;BME280;37130;55.670;37.596;2023-02-16T11:11:18;100226.91;;;-3.12;68.53
51081;BME280;37130;55.670;37.596;2023-02-16T11:14:00;100302.16;;;-2.57;67.95
51081;BME280;37130;55.670;37.596;2023-02-16T11:16:37;100300.56;;;-2.49;67.88
51081;BME280;37130;55.670;37.596;2023-02-16T11:19:07;100299.91;;;-2.37;68.30
51081;BME280;37130;55.670;37.596;2023-02-16T11:21:51;100304.22;;;-2.36;67.39
51081;BME280;37130;55.670;37.596;2023-02-16T11:24:34;100310.22;;;-2.40;67.16
51081;BME280;37130;55.670;37.596;2023-02-16T11:27:15;100312.59;;;-2.53;66.87
51081;BME280;37130;55.670;37.596;2023-02-16T11:29:44;100224.50;;;-3.01;67.04
51081;BME280;37130;55.670;37.596;2023-02-16T11:32:13;100135.28;;;-3.17;67.31
51081;BME280;37130;55.670;37.596;2023-02-16T11:34:50;100291.44;;;-2.24;65.80
51081;BME280;37130;55.670;37.596;2023-02-16T11:37:26;100296.44;;;-2.36;66.07
51081;BME280;37130;55.670;37.596;2023-02-16T11:39:57;100294.72;;;-2.37;65.34
51081;BME280;37130;55.670;37.596;2023-02-16T11:42:43;100285.91;;;-2.49;64.90
51081;BME280;37130;55.670;37.596;2023-02-16T11:45:24;100293.72;;;-2.46;65.00
51081;BME280;37130;55.670;37.596;2023-02-16T11:47:54;100275.44;;;-2.52;64.84
51081;BME280;37130;55.670;37.596;2023-02-16T11:50:40;100279.22;;;-2.33;64.51
51081;BME280;37130;55.670;37.596;2023-02-16T11:53:25;100291.50;;;-2.23;64.36
51081;BME280;37130;55.670;37.596;2023-02-16T11:56:26;100292.25;;;-2.28;64.68
51081;BME280;37130;55.670;37.596;2023-02-16T11:59:16;100132.56;;;-3.26;64.25
51081;BME280;37130;55.670;37.596;2023-02-16T12:02:16;100211.75;;;-2.89;64.12
51081;BME280;37130;55.670;37.596;2023-02-16T12:08:15;100285.13;;;-2.43;64.57
51081;BME280;37130;55.670;37.596;2023-02-16T12:11:25;100283.38;;;-2.43;65.29
51081;BME280;37130;55.670;37.596;2023-02-16T12:14:39;100224.06;;;-2.76;65.46
51081;BME280;37130;55.670;37.596;2023-02-16T12:20:44;100287.16;;;-2.75;65.60
51081;BME280;37130;55.670;37.596;2023-02-16T12:24:15;100295.34;;;-3.01;65.79
51081;BME280;37130;55.670;37.596;2023-02-16T12:27:02;100286.59;;;-3.08;65.76
51081;BME280;37130;55.670;37.596;2023-02-16T12:44:29;100197.63;;;-3.99;65.32
51081;BME280;37130;55.670;37.596;2023-02-16T12:47:04;100202.28;;;-3.83;65.84
51081;BME280;37130;55.670;37.596;2023-02-16T12:49:52;100301.81;;;-3.24;65.82
51081;BME280;37130;55.670;37.596;2023-02-16T12:55:09;100299.78;;;-3.39;65.88
51081;BME280;37130;55.670;37.596;2023-02-16T12:57:46;100211.59;;;-3.91;65.80
51081;BME280;37130;55.670;37.596;2023-02-16T13:00:18;100303.59;;;-3.22;65.37
51081;BME280;37130;55.670;37.596;2023-02-16T13:03:02;100305.28;;;-3.22;65.35
51081;BME280;37130;55.670;37.596;2023-02-16T13:05:36;100304.34;;;-3.27;65.70
51081;BME280;37130;55.670;37.596;2023-02-16T13:08:27;100303.56;;;-3.23;65.22
51081;BME280;37130;55.670;37.596;2023-02-16T13:11:03;100219.50;;;-3.85;65.50
51081;BME280;37130;55.670;37.596;2023-02-16T13:13:34;100295.78;;;-3.23;65.16
51081;BME280;37130;55.670;37.596;2023-02-16T13:16:14;100283.56;;;-3.31;65.34
51081;BME280;37130;55.670;37.596;2023-02-16T13:18:56;100203.03;;;-3.88;64.94
51081;BME280;37130;55.670;37.596;2023-02-16T13:24:25;100304.16;;;-3.37;65.04
51081;BME280;37130;55.670;37.596;2023-02-16T13:38:47;100301.66;;;-3.32;65.63
51081;BME280;37130;55.670;37.596;2023-02-16T13:44:14;100304.75;;;-3.50;65.06
51081;BME280;37130;55.670;37.596;2023-02-16T13:46:47;100304.75;;;-3.50;64.60
51081;BME280;37130;55.670;37.596;2023-02-16T13:49:34;100298.56;;;-3.57;64.83
51081;BME280;37130;55.670;37.596;2023-02-16T13:52:56;100304.06;;;-3.43;65.07
51081;BME280;37130;55.670;37.596;2023-02-16T13:55:01;100301.25;;;-3.54;64.41
51081;BME280;37130;55.670;37.596;2023-02-16T14:00:34;100308.53;;;-3.75;64.87
51081;BME280;37130;55.670;37.596;2023-02-16T14:05:45;100273.31;;;-3.68;65.65
51081;BME280;37130;55.670;37.596;2023-02-16T14:08:29;100302.88;;;-3.57;65.40
51081;BME280;37130;55.670;37.596;2023-02-16T14:11:01;100180.66;;;-4.27;65.18
51081;BME280;37130;55.670;37.596;2023-02-16T14:16:11;100299.19;;;-3.68;65.05
51081;BME280;37130;55.670;37.596;2023-02-16T14:21:44;100302.31;;;-3.83;65.45
51081;BME280;37130;55.670;37.596;2023-02-16T14:24:33;100311.06;;;-3.80;65.79
51081;BME280;37130;55.670;37.596;2023-02-16T14:27:06;100308.41;;;-3.81;65.41
51081;BME280;37130;55.670;37.596;2023-02-16T14:29:52;100301.22;;;-3.94;65.41
51081;BME280;37130;55.670;37.596;2023-02-16T14:32:33;100279.44;;;-4.06;66.24
51081;BME280;37130;55.670;37.596;2023-02-16T14:35:13;100310.84;;;-3.89;66.01
51081;BME280;37130;55.670;37.596;2023-02-16T14:37:58;100285.31;;;-4.11;66.00
51081;BME280;37130;55.670;37.596;2023-02-16T14:43:25;100314.03;;;-4.01;66.78
51081;BME280;37130;55.670;37.596;2023-02-16T14:51:24;100313.75;;;-4.13;66.56
51081;BME280;37130;55.670;37.596;2023-02-16T14:57:01;100313.63;;;-4.18;67.20
51081;BME280;37130;55.670;37.596;2023-02-16T14:59:35;100307.53;;;-4.20;67.19
51081;BME280;37130;55.670;37.596;2023-02-16T15:02:27;100310.09;;;-4.21;66.90
51081;BME280;37130;55.670;37.596;2023-02-16T15:04:55;100276.63;;;-4.51;67.25
51081;BME280;37130;55.670;37.596;2023-02-16T15:07:25;100305.84;;;-4.19;66.90
51081;BME280;37130;55.670;37.596;2023-02-16T15:09:56;100311.84;;;-4.22;67.41
51081;BME280;37130;55.670;37.596;2023-02-16T15:12:37;100238.28;;;-4.71;67.25
51081;BME280;37130;55.670;37.596;2023-02-16T15:15:07;100306.47;;;-4.29;67.24
51081;BME280;37130;55.670;37.596;2023-02-16T15:17:43;100316.81;;;-4.29;67.97